Time;durP1;ratioP1;P1;durP2;ratioP2;P2;SDS_P1;SDS_P2;PMS_P1;PMS_P2;Temp;Humidity;BMP_temperature;BMP_pressure;BME280_temperature;BME280_humidity;BME280_pressure;Samples;Min_cycle;Max_cycle;Signal;HPM_P1;HPM_P2
2022/12/17 13:06:53;;;;;;;62.27;29.57;;;1.30;99.90;;;;;;5107487;28;20039;-78
2022/12/17 13:09:30;;;;;;;63.47;29.33;;;1.30;99.90;;;;;;5105519;27;20035;-78
2022/12/17 13:11:59;;;;;;;67.57;31.20;;;1.20;99.90;;;;;;5105913;28;20053;-78
2022/12/17 13:14:43;;;;;;;61.03;30.97;;;1.10;99.90;;;;;;5098639;28;20051;-79
2022/12/17 13:17:17;;;;;;;61.40;30.48;;;1.10;99.90;;;;;;5095723;27;20382;-78
2022/12/17 13:19:56;;;;;;;61.90;29.93;;;0.80;99.90;;;;;;5111128;27;20031;-79
2022/12/17 13:22:21;;;;;;;68.90;30.93;;;0.70;99.90;;;;;;5114211;27;20050;-79
2022/12/17 13:24:50;;;;;;;67.93;31.57;;;0.90;99.90;;;;;;5106202;28;20122;-79
2022/12/17 13:27:39;;;;;;;65.87;30.70;;;1.00;99.90;;;;;;5108827;27;20658;-78
2022/12/17 13:30:16;;;;;;;61.50;30.00;;;1.00;99.90;;;;;;5092058;27;20092;-78
2022/12/17 13:33:13;;;;;;;64.57;30.63;;;1.10;99.90;;;;;;5113800;27;20051;-79
2022/12/17 13:36:16;;;;;;;66.47;29.97;;;0.90;99.90;;;;;;5104640;27;20033;-79
2022/12/17 13:38:58;;;;;;;64.27;30.13;;;0.80;99.90;;;;;;5110592;27;20038;-79
2022/12/17 13:41:31;;;;;;;65.00;30.17;;;0.80;99.90;;;;;;5097687;28;20039;-79
2022/12/17 13:44:20;;;;;;;57.85;28.13;;;0.70;99.90;;;;;;5110992;27;20113;-79
2022/12/17 13:46:47;;;;;;;65.00;29.40;;;0.70;99.90;;;;;;5104446;27;20500;-79
2022/12/17 13:49:24;;;;;;;67.50;31.20;;;0.60;99.90;;;;;;5104248;27;20047;-78
2022/12/17 13:52:02;;;;;;;66.17;31.37;;;0.50;99.90;;;;;;5084211;28;20036;-78
2022/12/17 13:54:28;;;;;;;65.63;29.73;;;0.50;99.90;;;;;;5105953;27;20031;-78
2022/12/17 13:56:53;;;;;;;64.97;30.10;;;0.40;99.90;;;;;;5110651;27;20039;-78
2022/12/17 13:59:24;;;;;;;72.70;30.53;;;0.30;99.90;;;;;;5097886;27;20031;-77
2022/12/17 14:01:52;;;;;;;62.27;30.20;;;0.20;99.90;;;;;;5095573;28;20038;-78
2022/12/17 14:04:23;;;;;;;61.00;28.73;;;0.20;99.90;;;;;;5094872;28;20036;-78
2022/12/17 14:06:50;;;;;;;65.40;31.73;;;0.20;99.90;;;;;;5094789;28;20035;-77
2022/12/17 14:09:17;;;;;;;65.67;29.30;;;0.10;99.90;;;;;;5094569;28;20516;-78
2022/12/17 14:14:27;;;;;;;;;;;0.10;99.90;;;;;;5099308;27;20044;-78
2022/12/17 14:16:53;;;;;;;59.80;28.00;;;0.00;99.90;;;;;;5093480;28;19915;-78
2022/12/17 14:19:19;;;;;;;64.43;29.80;;;0.00;99.90;;;;;;5094196;28;20521;-78
2022/12/17 14:21:45;;;;;;;63.67;29.03;;;0.00;99.90;;;;;;5094465;28;20065;-77
2022/12/17 14:24:12;;;;;;;61.47;29.20;;;-0.10;99.90;;;;;;5094457;28;20572;-78
2022/12/17 14:26:52;;;;;;;67.43;31.23;;;-0.10;99.90;;;;;;5094157;28;20042;-78
2022/12/17 14:29:23;;;;;;;66.87;30.70;;;-0.20;99.90;;;;;;5077406;28;20036;-77
2022/12/17 14:31:57;;;;;;;64.23;28.93;;;-0.20;99.90;;;;;;5094144;28;20092;-77
2022/12/17 14:34:23;;;;;;;69.27;30.27;;;-0.20;99.90;;;;;;5094246;28;20035;-77
2022/12/17 14:36:58;;;;;;;61.80;28.37;;;-0.30;99.90;;;;;;5094704;28;20488;-78
2022/12/17 14:39:29;;;;;;;62.47;29.23;;;-0.30;99.90;;;;;;5076751;28;20043;-77
2022/12/17 14:45:05;;;;;;;67.00;29.47;;;-0.40;99.90;;;;;;5106993;27;20127;-77
2022/12/17 14:47:36;;;;;;;70.00;31.30;;;-0.50;99.90;;;;;;5113826;27;20116;-77
2022/12/17 14:50:10;;;;;;;66.10;29.27;;;-0.50;99.90;;;;;;5097411;27;20528;-77
2022/12/17 14:52:45;;;;;;;61.77;27.97;;;-0.60;99.90;;;;;;5110472;28;20048;-77
2022/12/17 14:55:56;;;;;;;59.57;27.37;;;-0.70;99.90;;;;;;5093567;28;20490;-77
2022/12/17 14:58:26;;;;;;;58.13;27.00;;;-0.70;99.90;;;;;;5045074;28;20423;-77
2022/12/17 15:01:05;;;;;;;64.03;29.03;;;-0.80;99.90;;;;;;5084731;28;20060;-76
2022/12/17 15:03:34;;;;;;;63.70;28.07;;;-0.80;99.90;;;;;;5095293;28;20039;-76
2022/12/17 15:06:03;;;;;;;65.40;29.80;;;-0.80;99.90;;;;;;5089270;28;20497;-76
2022/12/17 15:08:33;;;;;;;63.53;27.67;;;-0.90;99.90;;;;;;5109235;28;20118;-76
2022/12/17 15:10:59;;;;;;;66.67;29.47;;;-0.90;99.90;;;;;;5105875;28;20046;-76
2022/12/17 15:13:25;;;;;;;66.07;29.13;;;-0.90;99.90;;;;;;5105061;28;20389;-76
2022/12/17 15:15:50;;;;;;;65.60;28.77;;;-1.00;99.90;;;;;;5095747;28;20507;-77
2022/12/17 15:18:16;;;;;;;63.43;27.60;;;-1.00;99.90;;;;;;5101682;28;20027;-76
2022/12/17 15:20:42;;;;;;;64.07;28.87;;;-1.00;99.90;;;;;;5107115;28;20504;-77
2022/12/17 15:23:14;;;;;;;63.33;27.90;;;-1.10;99.90;;;;;;5076192;28;20046;-77
2022/12/17 15:25:39;;;;;;;65.13;28.90;;;-1.10;99.90;;;;;;5096440;28;20562;-77
2022/12/17 15:28:05;;;;;;;67.60;29.30;;;-1.20;99.90;;;;;;5097656;27;20111;-76
2022/12/17 15:30:30;;;;;;;67.43;29.80;;;-1.20;99.90;;;;;;5105186;27;20071;-77
2022/12/17 15:32:56;;;;;;;66.93;28.80;;;-1.20;99.90;;;;;;5111000;27;20048;-77
2022/12/17 15:35:21;;;;;;;72.47;29.77;;;-1.20;99.90;;;;;;5110268;27;20046;-76
2022/12/17 15:37:47;;;;;;;69.07;29.97;;;-1.30;99.90;;;;;;5098185;28;20115;-76
2022/12/17 15:40:13;;;;;;;68.67;29.60;;;-1.30;99.90;;;;;;5106278;28;20028;-77
2022/12/17 15:45:25;;;;;;;;;;;-1.40;99.90;;;;;;5111370;27;20075;-77
2022/12/17 15:47:51;;;;;;;64.30;28.00;;;-1.40;99.90;;;;;;5099906;27;19923;-77
2022/12/17 15:50:16;;;;;;;69.77;30.37;;;-1.50;99.90;;;;;;5097558;28;20039;-77
2022/12/17 15:52:42;;;;;;;66.17;27.57;;;-1.40;99.90;;;;;;5097710;28;20032;-77
2022/12/17 15:55:08;;;;;;;67.67;28.90;;;-1.50;99.90;;;;;;5097474;27;20096;-77
2022/12/17 15:57:34;;;;;;;59.93;26.50;;;-1.60;99.90;;;;;;5097443;27;20028;-77
2022/12/17 15:59:59;;;;;;;64.73;26.47;;;-1.60;99.90;;;;;;5102916;27;20040;-77
2022/12/17 16:02:25;;;;;;;63.47;26.10;;;-1.60;99.90;;;;;;5112495;27;20042;-77
2022/12/17 16:04:51;;;;;;;68.90;28.73;;;-1.60;99.90;;;;;;5096899;27;20035;-77
2022/12/17 16:07:17;;;;;;;65.00;27.90;;;-1.70;99.90;;;;;;5103779;28;20035;-77
2022/12/17 16:09:42;;;;;;;64.43;26.80;;;-1.70;99.90;;;;;;5104574;28;20117;-77
2022/12/17 16:12:08;;;;;;;73.27;27.87;;;-1.70;99.90;;;;;;5082974;27;20085;-77
2022/12/17 16:14:33;;;;;;;68.27;28.97;;;-1.80;99.90;;;;;;5104905;27;20395;-77
2022/12/17 16:16:59;;;;;;;67.77;28.27;;;-1.80;99.90;;;;;;5080074;27;20074;-77
2022/12/17 16:19:25;;;;;;;71.73;27.37;;;-1.80;99.90;;;;;;5097048;27;20047;-76
2022/12/17 16:21:50;;;;;;;65.80;27.43;;;-1.80;99.90;;;;;;5082157;27;20035;-77
2022/12/17 16:24:16;;;;;;;70.60;27.20;;;-1.90;99.90;;;;;;5104129;27;20039;-76
2022/12/17 16:26:42;;;;;;;72.80;27.87;;;-1.90;99.90;;;;;;5098469;27;20441;-77
2022/12/17 16:29:07;;;;;;;67.83;26.47;;;-1.90;99.90;;;;;;5090602;27;20035;-76
2022/12/17 16:31:33;;;;;;;62.30;25.73;;;-1.90;99.90;;;;;;5103691;28;20040;-76
2022/12/17 16:33:58;;;;;;;67.67;26.10;;;-2.00;99.90;;;;;;5096236;28;20040;-76
2022/12/17 16:36:24;;;;;;;69.80;26.57;;;-1.90;99.90;;;;;;5095208;28;20067;-76
2022/12/17 16:38:53;;;;;;;68.00;26.17;;;-2.00;99.90;;;;;;5077510;28;20032;-76
2022/12/17 16:41:19;;;;;;;70.03;28.60;;;-2.00;99.90;;;;;;5096194;28;20409;-77
2022/12/17 16:43:45;;;;;;;66.43;27.03;;;-2.00;99.90;;;;;;5095954;28;20044;-76
2022/12/17 16:46:31;;;;;;;65.37;24.87;;;-2.00;99.90;;;;;;5095816;28;20039;-76
2022/12/17 16:49:02;;;;;;;69.57;26.40;;;-2.00;99.90;;;;;;5095629;28;20039;-77
2022/12/17 16:51:28;;;;;;;61.40;24.57;;;-2.10;99.90;;;;;;5096030;28;20120;-76
2022/12/17 16:53:54;;;;;;;69.37;27.10;;;-2.10;99.90;;;;;;5095636;28;20047;-76
2022/12/17 16:56:26;;;;;;;65.87;26.13;;;-2.10;99.90;;;;;;5095804;28;20032;-77
2022/12/17 16:58:52;;;;;;;70.47;26.73;;;-2.10;99.90;;;;;;5095940;28;20046;-77
2022/12/17 17:01:27;;;;;;;79.30;28.63;;;-2.10;99.90;;;;;;5093085;27;20043;-77
2022/12/17 17:03:53;;;;;;;68.67;24.87;;;-2.10;99.90;;;;;;5095549;28;20032;-77
2022/12/17 17:06:19;;;;;;;69.37;25.23;;;-2.20;99.90;;;;;;5095813;28;20064;-77
2022/12/17 17:08:45;;;;;;;68.43;25.67;;;-2.20;99.90;;;;;;5095738;28;20035;-77
2022/12/17 17:11:13;;;;;;;70.30;26.53;;;-2.20;99.90;;;;;;5095674;28;20451;-76
2022/12/17 17:13:39;;;;;;;69.37;27.40;;;-2.20;99.90;;;;;;5095574;28;20032;-76
2022/12/17 17:16:06;;;;;;;73.13;26.10;;;-2.20;99.90;;;;;;5095518;28;20535;-77
2022/12/17 17:18:32;;;;;;;73.10;27.23;;;-2.20;99.90;;;;;;5095138;28;20096;-77
2022/12/17 17:21:15;;;;;;;74.53;27.43;;;-2.30;99.90;;;;;;5095915;28;20039;-78
2022/12/17 17:23:41;;;;;;;75.00;26.20;;;-2.30;99.90;;;;;;5094699;28;20099;-77
2022/12/17 17:26:08;;;;;;;74.77;27.67;;;-2.30;99.90;;;;;;5095531;28;20047;-77
2022/12/17 17:28:33;;;;;;;69.97;26.93;;;-2.30;99.90;;;;;;5095184;28;20396;-76
2022/12/17 17:31:04;;;;;;;81.27;28.07;;;-2.30;99.90;;;;;;5083209;27;20039;-77
2022/12/17 17:33:31;;;;;;;75.27;27.53;;;-2.40;99.90;;;;;;5103386;28;20067;-77
2022/12/17 17:36:10;;;;;;;75.67;27.47;;;-2.30;99.90;;;;;;5096300;27;20122;-76
2022/12/17 17:38:38;;;;;;;74.70;27.57;;;-2.30;99.90;;;;;;5102987;28;20409;-76
2022/12/17 17:41:05;;;;;;;71.57;26.00;;;-2.30;99.90;;;;;;5095007;28;20436;-76
2022/12/17 17:43:31;;;;;;;76.40;26.07;;;-2.30;99.90;;;;;;5095056;28;20063;-76
2022/12/17 17:46:09;;;;;;;80.87;27.70;;;-2.30;99.90;;;;;;5094492;28;20047;-76
2022/12/17 17:48:35;;;;;;;76.37;27.53;;;-2.30;99.90;;;;;;5094940;28;20047;-76
2022/12/17 17:51:04;;;;;;;72.37;26.03;;;-2.40;99.90;;;;;;5094683;28;20039;-76
2022/12/17 17:53:30;;;;;;;73.17;27.10;;;-2.40;99.90;;;;;;5094443;28;20044;-76
2022/12/17 17:56:27;;;;;;;76.87;28.20;;;-2.40;99.90;;;;;;5094443;28;20043;-76
2022/12/17 17:59:00;;;;;;;77.17;27.63;;;-2.40;99.90;;;;;;5085979;28;20150;-76
2022/12/17 18:01:28;;;;;;;73.97;26.00;;;-2.40;99.90;;;;;;5094468;28;20363;-76
2022/12/17 18:03:55;;;;;;;75.00;27.07;;;-2.40;99.90;;;;;;5094640;28;20039;-75
2022/12/17 18:06:21;;;;;;;75.37;25.40;;;-2.40;99.90;;;;;;5094715;28;20408;-75
2022/12/17 18:08:47;;;;;;;70.60;27.53;;;-2.40;99.90;;;;;;5094200;28;20046;-76
2022/12/17 18:11:16;;;;;;;70.20;26.13;;;-2.40;99.90;;;;;;5094572;28;20040;-74
2022/12/17 18:13:54;;;;;;;74.10;26.00;;;-2.30;99.90;;;;;;5094258;28;20043;-75
2022/12/17 18:16:22;;;;;;;72.07;26.93;;;-2.40;99.90;;;;;;5094516;28;20040;-75
2022/12/17 18:18:48;;;;;;;72.07;25.00;;;-2.40;99.90;;;;;;5093924;28;20035;-75
2022/12/17 18:21:17;;;;;;;80.27;26.20;;;-2.40;99.90;;;;;;5093354;28;20036;-75
2022/12/17 18:23:43;;;;;;;72.00;26.63;;;-2.40;99.90;;;;;;5093733;28;20054;-74
2022/12/17 18:26:11;;;;;;;79.67;25.23;;;-2.40;99.90;;;;;;5077052;28;20036;-75
2022/12/17 18:28:37;;;;;;;73.80;26.03;;;-2.40;99.90;;;;;;5093973;28;20036;-75
2022/12/17 18:31:26;;;;;;;71.83;25.60;;;-2.40;99.90;;;;;;5093911;28;20032;-75
2022/12/17 18:33:56;;;;;;;78.60;25.50;;;-2.50;99.90;;;;;;5068181;28;20105;-74
2022/12/17 18:36:25;;;;;;;72.90;26.83;;;-2.50;99.90;;;;;;5093381;28;20047;-75
2022/12/17 18:38:58;;;;;;;69.33;26.13;;;-2.50;99.90;;;;;;5093480;28;20039;-74
2022/12/17 18:44:08;;;;;;;63.47;22.20;;;-2.50;99.90;;;;;;5092922;28;20384;-75
2022/12/17 18:46:34;;;;;;;68.27;24.03;;;-2.50;99.90;;;;;;5092859;28;20118;-74
2022/12/17 18:49:06;;;;;;;71.80;24.10;;;-2.50;99.90;;;;;;5093840;28;20187;-74
2022/12/17 18:51:36;;;;;;;64.23;24.57;;;-2.50;99.90;;;;;;5093988;28;20058;-74
2022/12/17 18:54:05;;;;;;;68.77;24.47;;;-2.50;99.90;;;;;;5093489;28;20043;-74
2022/12/17 18:56:31;;;;;;;69.47;25.50;;;-2.50;99.90;;;;;;5093373;28;20041;-74
2022/12/17 18:58:57;;;;;;;71.43;24.60;;;-2.50;99.90;;;;;;5094116;27;20023;-75
2022/12/17 19:01:28;;;;;;;68.27;25.30;;;-2.50;99.90;;;;;;5099159;28;20032;-74
2022/12/17 19:03:54;;;;;;;70.53;25.70;;;-2.60;99.90;;;;;;5104502;28;20067;-74
2022/12/17 19:06:21;;;;;;;71.47;26.70;;;-2.60;99.90;;;;;;5112628;27;20039;-75
2022/12/17 19:08:47;;;;;;;71.47;26.17;;;-2.60;99.90;;;;;;5106546;28;20035;-75
2022/12/17 19:11:14;;;;;;;68.90;26.17;;;-2.70;99.90;;;;;;5095695;28;20047;-75
2022/12/17 19:13:39;;;;;;;68.37;26.63;;;-2.70;99.90;;;;;;5110538;28;20110;-75
2022/12/17 19:16:16;;;;;;;75.07;27.73;;;-2.70;99.90;;;;;;5101197;28;20085;-75
2022/12/17 19:18:42;;;;;;;72.33;26.20;;;-2.70;99.90;;;;;;5104226;28;20035;-75
2022/12/17 19:21:15;;;;;;;69.97;25.23;;;-2.80;99.90;;;;;;5123354;27;20042;-74
2022/12/17 19:23:40;;;;;;;67.57;23.87;;;-2.80;99.90;;;;;;5110550;28;20035;-75
2022/12/17 19:26:11;;;;;;;68.83;23.83;;;-2.80;99.90;;;;;;5097347;28;20046;-75
2022/12/17 19:28:40;;;;;;;75.87;27.63;;;-2.80;99.90;;;;;;5076516;28;20037;-76
2022/12/17 19:31:05;;;;;;;71.57;26.17;;;-2.80;99.90;;;;;;5103731;28;20501;-75
2022/12/17 19:33:31;;;;;;;70.60;26.97;;;-2.80;99.90;;;;;;5108577;28;20047;-75
2022/12/17 19:36:05;;;;;;;73.50;25.83;;;-2.80;99.90;;;;;;5100691;28;20118;-76
2022/12/17 19:38:31;;;;;;;63.27;25.20;;;-2.80;99.90;;;;;;5094086;28;20485;-75
2022/12/17 19:41:04;;;;;;;72.40;25.10;;;-2.80;99.90;;;;;;5103815;28;20054;-75
2022/12/17 19:43:30;;;;;;;73.03;26.67;;;-2.80;99.90;;;;;;5093293;28;20058;-75
2022/12/17 19:46:06;;;;;;;78.07;27.57;;;-2.80;99.90;;;;;;5093768;27;20051;-76
2022/12/17 19:48:33;;;;;;;88.03;28.77;;;-2.80;99.90;;;;;;5092288;27;20036;-76
2022/12/17 19:50:59;;;;;;;74.50;27.20;;;-2.80;99.90;;;;;;5092597;27;20526;-75
2022/12/17 19:53:26;;;;;;;72.23;27.17;;;-2.80;99.90;;;;;;5096258;27;20050;-76
2022/12/17 19:56:10;;;;;;;81.17;29.03;;;-2.80;99.90;;;;;;5100835;27;20058;-76
2022/12/17 19:58:36;;;;;;;68.97;26.10;;;-2.80;99.90;;;;;;5110795;27;20034;-76
2022/12/17 20:01:16;;;;;;;74.17;27.07;;;-2.80;99.90;;;;;;5096687;27;20749;-76
2022/12/17 20:03:43;;;;;;;71.53;26.30;;;-2.80;99.90;;;;;;5110933;27;20031;-76
2022/12/17 20:06:10;;;;;;;76.23;29.23;;;-2.80;99.90;;;;;;5104146;28;20046;-75
2022/12/17 20:08:36;;;;;;;77.07;26.83;;;-2.80;99.90;;;;;;5100930;28;20055;-76
2022/12/17 20:14:02;;;;;;;74.47;29.40;;;-2.90;99.90;;;;;;5096475;28;20043;-76
2022/12/17 20:16:31;;;;;;;72.70;28.13;;;-2.90;99.90;;;;;;5096421;27;20397;-76
2022/12/17 20:19:00;;;;;;;70.10;28.10;;;-2.90;99.90;;;;;;5101362;27;20070;-76
2022/12/17 20:21:26;;;;;;;70.10;27.60;;;-2.90;99.90;;;;;;5104796;27;20508;-75
2022/12/17 20:23:52;;;;;;;71.73;29.27;;;-2.90;99.90;;;;;;5106666;27;20105;-76
2022/12/17 20:26:18;;;;;;;67.53;27.57;;;-2.90;99.90;;;;;;5116417;27;20513;-75
2022/12/17 20:28:44;;;;;;;68.93;28.50;;;-2.90;99.90;;;;;;5097370;28;20059;-75
2022/12/17 20:31:11;;;;;;;81.03;30.13;;;-2.90;99.90;;;;;;5103711;27;20031;-75
2022/12/17 20:33:36;;;;;;;70.27;27.87;;;-2.90;99.90;;;;;;5091595;28;20115;-76
2022/12/17 20:36:08;;;;;;;84.20;31.90;;;-2.90;99.90;;;;;;5096533;28;20114;-76
2022/12/17 20:38:34;;;;;;;77.73;30.93;;;-2.90;99.90;;;;;;5105711;27;20039;-76
2022/12/17 20:40:59;;;;;;;70.93;30.73;;;-3.00;99.90;;;;;;5096024;28;20063;-76
2022/12/17 20:43:26;;;;;;;76.87;30.33;;;-3.00;99.90;;;;;;5101907;27;20405;-76
2022/12/17 20:45:55;;;;;;;73.80;30.43;;;-2.90;99.90;;;;;;5097563;28;20048;-76
2022/12/17 20:48:22;;;;;;;79.00;32.03;;;-3.00;99.90;;;;;;5104301;27;20034;-77
2022/12/17 20:50:48;;;;;;;74.50;29.97;;;-3.00;99.90;;;;;;5121933;27;20038;-76
2022/12/17 20:53:14;;;;;;;78.70;32.40;;;-3.00;99.90;;;;;;5102935;27;20040;-76
2022/12/17 20:55:39;;;;;;;79.07;31.40;;;-3.10;99.90;;;;;;5108013;27;20510;-76
2022/12/17 20:58:05;;;;;;;77.50;30.60;;;-3.10;99.90;;;;;;5111628;27;20420;-76
2022/12/17 21:00:31;;;;;;;81.93;32.40;;;-3.10;99.90;;;;;;5108477;27;20443;-77
2022/12/17 21:02:57;;;;;;;75.37;30.33;;;-3.10;99.90;;;;;;5098555;27;20123;-77
2022/12/17 21:05:24;;;;;;;73.80;32.87;;;-3.10;99.90;;;;;;5104784;27;20115;-76
2022/12/17 21:07:50;;;;;;;74.30;30.87;;;-3.10;99.90;;;;;;5129705;27;20481;-77
2022/12/17 21:10:15;;;;;;;81.50;32.00;;;-3.10;99.90;;;;;;5103160;27;20049;-77
2022/12/17 21:15:27;;;;;;;77.87;31.90;;;-3.10;99.90;;;;;;5122193;27;20043;-76
2022/12/17 21:17:53;;;;;;;78.60;32.67;;;-3.10;99.90;;;;;;5131248;27;20031;-76
2022/12/17 21:20:19;;;;;;;80.10;32.77;;;-3.10;99.90;;;;;;5109583;27;20035;-76
2022/12/17 21:22:44;;;;;;;83.40;33.03;;;-3.10;99.90;;;;;;5106700;27;20118;-76
2022/12/17 21:25:10;;;;;;;76.40;32.17;;;-3.10;99.90;;;;;;5084820;27;20151;-76
2022/12/17 21:27:35;;;;;;;77.60;32.03;;;-3.10;99.90;;;;;;5111374;27;20121;-76
2022/12/17 21:30:01;;;;;;;83.60;32.23;;;-3.10;99.90;;;;;;5116748;27;20036;-76
2022/12/17 21:32:27;;;;;;;82.23;32.50;;;-3.20;99.90;;;;;;5111588;27;20035;-76
2022/12/17 21:34:52;;;;;;;74.07;31.10;;;-3.20;99.90;;;;;;5110072;28;20066;-77
2022/12/17 21:37:18;;;;;;;76.33;31.77;;;-3.10;99.90;;;;;;5088938;27;20130;-76
2022/12/17 21:39:44;;;;;;;78.97;32.17;;;-3.20;99.90;;;;;;5101938;28;20031;-76
2022/12/17 21:44:53;;;;;;;81.30;31.07;;;-3.10;99.90;;;;;;5104549;27;20173;-76
2022/12/17 21:47:19;;;;;;;91.13;32.83;;;-3.10;99.90;;;;;;5106066;27;20126;-77
2022/12/17 21:49:44;;;;;;;87.57;32.90;;;-3.20;99.90;;;;;;5099112;28;20039;-77
2022/12/17 21:52:10;;;;;;;77.53;30.60;;;-3.20;99.90;;;;;;5099707;27;20503;-76
2022/12/17 21:54:36;;;;;;;92.70;31.83;;;-3.20;99.90;;;;;;5100672;27;20087;-76
2022/12/17 21:57:01;;;;;;;86.67;31.77;;;-3.20;99.90;;;;;;5107160;27;20078;-76
2022/12/17 21:59:27;;;;;;;75.33;30.13;;;-3.10;99.90;;;;;;5097880;27;20034;-76
2022/12/17 22:01:55;;;;;;;92.57;35.07;;;-3.20;99.90;;;;;;5109365;27;20031;-76
2022/12/17 22:04:21;;;;;;;81.30;31.43;;;-3.10;99.90;;;;;;5104098;27;20508;-77
2022/12/17 22:06:47;;;;;;;89.57;33.10;;;-3.10;99.90;;;;;;5101666;27;20035;-76
2022/12/17 22:09:13;;;;;;;83.37;30.67;;;-3.20;99.90;;;;;;5109213;27;20042;-76
2022/12/17 22:11:38;;;;;;;76.10;31.17;;;-3.20;99.90;;;;;;5102511;28;20503;-77
2022/12/17 22:14:10;;;;;;;77.57;29.07;;;-3.20;99.90;;;;;;5111325;27;20038;-77
2022/12/17 22:16:47;;;;;;;73.67;29.23;;;-3.30;99.90;;;;;;5102502;27;20031;-77
2022/12/17 22:19:21;;;;;;;85.37;31.13;;;-3.30;99.90;;;;;;5099011;27;20149;-76
2022/12/17 22:21:50;;;;;;;77.80;29.30;;;-3.30;99.90;;;;;;5104593;27;20072;-76
2022/12/17 22:24:18;;;;;;;80.20;28.90;;;-3.30;99.90;;;;;;5106313;27;20039;-76
2022/12/17 22:26:44;;;;;;;72.07;28.47;;;-3.30;99.90;;;;;;5095064;27;20067;-76
2022/12/17 22:29:10;;;;;;;79.03;29.93;;;-3.30;99.90;;;;;;5107103;27;20035;-76
2022/12/17 22:34:20;;;;;;;;;;;-3.30;99.90;;;;;;5101088;28;20105;-76
2022/12/17 22:36:45;;;;;;;77.13;27.83;;;-3.30;99.90;;;;;;5094838;27;19915;-76
2022/12/17 22:39:13;;;;;;;84.23;29.53;;;-3.30;99.90;;;;;;5092540;27;20047;-76
2022/12/17 22:44:25;;;;;;;73.20;29.10;;;-3.40;99.90;;;;;;5106787;27;20047;-76
2022/12/17 22:46:50;;;;;;;79.50;29.80;;;-3.30;99.90;;;;;;5093330;28;20032;-76
2022/12/17 22:49:17;;;;;;;77.73;27.97;;;-3.30;99.90;;;;;;5095375;27;20112;-76
2022/12/17 22:51:43;;;;;;;81.30;27.83;;;-3.40;99.90;;;;;;5105783;27;20412;-77
2022/12/17 22:54:10;;;;;;;77.27;27.57;;;-3.40;99.90;;;;;;5109243;27;20572;-77
2022/12/17 22:56:37;;;;;;;77.63;29.00;;;-3.40;99.90;;;;;;5101631;28;20043;-76
2022/12/17 22:59:03;;;;;;;76.13;29.73;;;-3.40;99.90;;;;;;5097097;28;20528;-76
2022/12/17 23:01:29;;;;;;;75.93;28.87;;;-3.40;99.90;;;;;;5108906;27;20039;-76
2022/12/17 23:03:57;;;;;;;84.77;29.37;;;-3.40;99.90;;;;;;5099883;28;20051;-76
2022/12/17 23:06:22;;;;;;;90.00;31.40;;;-3.40;99.90;;;;;;5104925;28;20035;-76
2022/12/17 23:08:49;;;;;;;76.43;28.13;;;-3.40;99.90;;;;;;5107159;28;20459;-76
2022/12/17 23:11:23;;;;;;;76.27;27.97;;;-3.40;99.90;;;;;;5104495;27;20088;-77
2022/12/17 23:13:49;;;;;;;73.73;29.63;;;-3.40;99.90;;;;;;5095932;28;20052;-76
2022/12/17 23:16:15;;;;;;;82.77;30.80;;;-3.00;99.90;;;;;;5107266;28;20303;-77
2022/12/17 23:18:42;;;;;;;78.63;29.00;;;-3.40;99.90;;;;;;5086909;28;20047;-76
2022/12/17 23:21:11;;;;;;;83.03;29.77;;;-3.40;99.90;;;;;;5103125;28;20035;-76
2022/12/17 23:23:37;;;;;;;77.10;27.93;;;-3.40;99.90;;;;;;5089418;28;20042;-76
2022/12/17 23:26:25;;;;;;;83.60;29.40;;;-3.40;99.90;;;;;;5097770;28;20565;-76
2022/12/17 23:28:59;;;;;;;77.73;29.60;;;-3.40;99.90;;;;;;5092433;28;20082;-76
2022/12/17 23:31:26;;;;;;;75.40;28.10;;;-3.40;99.90;;;;;;5085076;28;20128;-76
2022/12/17 23:33:51;;;;;;;79.60;28.67;;;-3.40;99.90;;;;;;5108736;28;20039;-76
2022/12/17 23:36:20;;;;;;;86.57;28.53;;;-3.40;99.90;;;;;;5107122;28;20493;-75
2022/12/17 23:38:47;;;;;;;83.40;26.77;;;-3.40;99.90;;;;;;5104140;28;20373;-76
2022/12/17 23:41:24;;;;;;;78.30;28.07;;;-3.40;99.90;;;;;;5103469;28;21861;-76
2022/12/17 23:43:50;;;;;;;76.97;27.27;;;-3.40;99.90;;;;;;5104196;27;20035;-76
2022/12/17 23:46:17;;;;;;;96.03;32.90;;;-3.40;99.90;;;;;;5113379;27;20042;-76
2022/12/17 23:48:44;;;;;;;89.00;29.57;;;-3.50;99.90;;;;;;5107681;27;20122;-76
2022/12/17 23:51:10;;;;;;;78.93;27.20;;;-3.50;99.90;;;;;;5113114;28;20032;-76
2022/12/17 23:53:37;;;;;;;79.47;28.17;;;-3.50;99.90;;;;;;5106983;27;20404;-76
2022/12/17 23:56:14;;;;;;;88.90;29.00;;;-3.50;99.90;;;;;;5106227;28;20028;-75
2022/12/17 23:58:41;;;;;;;75.20;28.27;;;-3.50;99.90;;;;;;5106629;28;20432;-76
